Main page
METAR-TAF:

METAR-TAF

Airports :

Orio al Serio International Airport

Bergamo, Italy

latitude: 45-40N, longitude: 009-42E, elevation: 238 m

Current weather observation

The report was made 28 minutes ago, at 10:20 UTC
Wind 6 kt from the South/Southeast, varying between Southeast and Southwest
Temperature 23°C
Humidity 41%
Pressure 1018 hPa
Visibility 10 km or more
Scattered clouds at a height of 10000 ft

METAR: LIME 241020Z 16006KT 130V230 9999 SCT100 23/09 Q1018 NOSIG

Time: 12:48 (10:48 UTC)

Forecast

The report was made 5 hours and 48 minutes ago, at 05:00 UTC
Forecast valid from 24 at 06 UTC to 25 at 06 UTC
Wind 5 kt from variable directions
Visibility 10 km or more
Scattered clouds at a height of 8000 ft

TAF: LIME 240500Z 2406/2506 VRB05KT 9999 SCT080

Weather observations and forecasts of more than 4000 airports (METAR and TAF reports).

The available stations are represented by yellow and red dots on the map.

Hover mouse over dot to see the name of the station.

Then click to see weather observations and forecasts.

To change the map : click on the green buttons with a black cross to zoom in, on the green button with a dash to zoom out, or on the green arrows for adjacent maps.


METAR-TAF: